Time;durP1;ratioP1;P1;durP2;ratioP2;P2;SDS_P1;SDS_P2;PMS_P1;PMS_P2;Temp;Humidity;BMP_temperature;BMP_pressure;BME280_temperature;BME280_humidity;BME280_pressure;Samples;Min_cycle;Max_cycle;Signal;HPM_P1;HPM_P2
2022/04/30 00:02:15;;;;;;;13.77;8.43;;;7.20;99.90;;;;;;5015908;28;20372;-72
2022/04/30 00:04:45;;;;;;;12.52;8.10;;;7.20;99.90;;;;;;5015545;28;20057;-69
2022/04/30 00:07:17;;;;;;;12.88;8.38;;;7.30;99.90;;;;;;5015422;28;20046;-72
2022/04/30 00:09:43;;;;;;;13.38;8.65;;;7.30;99.90;;;;;;5015648;28;20057;-69
2022/04/30 00:12:09;;;;;;;11.60;8.43;;;7.30;99.90;;;;;;5015720;28;20049;-70
2022/04/30 00:14:36;;;;;;;11.68;8.30;;;7.40;99.90;;;;;;5011095;28;20065;-69
2022/04/30 00:17:02;;;;;;;11.63;8.20;;;7.40;99.90;;;;;;5000625;28;20056;-71
2022/04/30 00:19:28;;;;;;;11.68;8.05;;;7.40;99.90;;;;;;5013937;28;20046;-69
2022/04/30 00:21:54;;;;;;;12.68;7.75;;;7.50;99.90;;;;;;4995740;28;20054;-71
2022/04/30 00:24:20;;;;;;;16.70;8.40;;;7.50;99.90;;;;;;4995726;28;20126;-71
2022/04/30 00:26:46;;;;;;;12.93;7.15;;;7.50;99.90;;;;;;4995753;28;20133;-71
2022/04/30 00:29:11;;;;;;;12.48;7.63;;;7.60;99.90;;;;;;4978760;28;20042;-72
2022/04/30 00:31:38;;;;;;;11.70;7.82;;;7.70;99.90;;;;;;4997028;28;20124;-71
2022/04/30 00:34:04;;;;;;;10.82;7.35;;;7.70;99.90;;;;;;5015317;28;20073;-72
2022/04/30 00:36:29;;;;;;;13.65;7.82;;;7.70;99.90;;;;;;5015274;28;20054;-71
2022/04/30 00:38:55;;;;;;;12.88;8.48;;;7.70;99.90;;;;;;5015521;28;20046;-69
2022/04/30 00:41:23;;;;;;;11.32;7.90;;;7.80;99.90;;;;;;5015408;28;20042;-71
2022/04/30 00:43:51;;;;;;;9.68;8.40;;;7.80;99.90;;;;;;5015605;28;20046;-69
2022/04/30 00:46:20;;;;;;;12.73;7.28;;;7.90;99.90;;;;;;5003560;28;20046;-69
2022/04/30 00:48:46;;;;;;;11.48;7.88;;;7.90;99.90;;;;;;4995458;28;20078;-70
2022/04/30 00:51:14;;;;;;;10.65;7.70;;;7.90;99.90;;;;;;4995456;28;20073;-68
2022/04/30 00:53:43;;;;;;;11.90;8.00;;;7.90;99.90;;;;;;4995399;28;20058;-70
2022/04/30 00:56:11;;;;;;;13.98;8.18;;;8.00;99.90;;;;;;4995145;28;20515;-71
2022/04/30 00:58:40;;;;;;;13.90;8.23;;;8.10;99.90;;;;;;4995562;28;20042;-71
2022/04/30 01:01:05;;;;;;;14.48;8.80;;;8.10;99.90;;;;;;4995004;28;20487;-70
2022/04/30 01:03:31;;;;;;;12.38;7.90;;;8.10;99.90;;;;;;4995364;28;20042;-70
2022/04/30 01:05:59;;;;;;;10.23;8.10;;;8.10;99.90;;;;;;4995269;28;20499;-69
2022/04/30 01:08:29;;;;;;;15.57;8.60;;;8.10;99.90;;;;;;4998797;28;20042;-69
2022/04/30 01:11:00;;;;;;;11.73;8.10;;;8.20;99.90;;;;;;5015045;28;20414;-69
2022/04/30 01:13:27;;;;;;;13.68;8.55;;;8.20;99.90;;;;;;5014913;28;20112;-69
2022/04/30 01:15:52;;;;;;;11.88;8.68;;;8.20;99.90;;;;;;5014796;28;20053;-70
2022/04/30 01:18:19;;;;;;;13.70;7.93;;;8.20;99.90;;;;;;5014604;28;20054;-71
2022/04/30 01:20:50;;;;;;;11.45;7.75;;;8.20;99.90;;;;;;5014895;28;20112;-68
2022/04/30 01:23:17;;;;;;;11.85;6.93;;;8.30;99.90;;;;;;5014722;28;20100;-69
2022/04/30 01:25:45;;;;;;;10.07;6.32;;;8.30;99.90;;;;;;4980514;28;20135;-71
2022/04/30 01:28:12;;;;;;;8.48;7.32;;;8.30;99.90;;;;;;5014590;28;20054;-69
2022/04/30 01:30:38;;;;;;;12.18;6.68;;;8.30;99.90;;;;;;5017274;28;20092;-70
2022/04/30 01:38:32;;;;;;;9.38;6.45;;;8.30;99.90;;;;;;5018652;28;20046;-69
2022/04/30 01:40:58;;;;;;;7.85;6.65;;;8.30;99.90;;;;;;5018698;28;20355;-70
2022/04/30 01:43:24;;;;;;;12.73;6.40;;;8.30;99.90;;;;;;5018180;28;20412;-71
2022/04/30 01:45:50;;;;;;;11.60;6.80;;;8.30;99.90;;;;;;5018440;28;20045;-70
2022/04/30 01:48:16;;;;;;;12.07;6.15;;;8.40;99.90;;;;;;5018227;28;20068;-69
2022/04/30 01:50:43;;;;;;;12.75;6.55;;;8.40;99.90;;;;;;5018194;28;20053;-69
2022/04/30 01:53:09;;;;;;;9.48;6.60;;;8.40;99.90;;;;;;4997749;28;20373;-69
2022/04/30 01:55:35;;;;;;;8.68;6.07;;;8.40;99.90;;;;;;4998645;28;20102;-71
2022/04/30 01:58:01;;;;;;;9.88;6.20;;;8.40;99.90;;;;;;4997749;28;20050;-72
2022/04/30 02:00:26;;;;;;;10.52;6.28;;;8.40;99.90;;;;;;4998609;28;20050;-69
2022/04/30 02:02:54;;;;;;;11.57;6.20;;;8.40;99.90;;;;;;4998294;28;20046;-71
2022/04/30 02:05:21;;;;;;;11.52;6.75;;;8.40;99.90;;;;;;4998556;28;20042;-70
2022/04/30 02:07:52;;;;;;;13.55;6.75;;;8.40;99.90;;;;;;4998600;28;20043;-69
2022/04/30 02:10:18;;;;;;;8.77;6.38;;;8.40;99.90;;;;;;4998299;28;20038;-69
2022/04/30 02:12:44;;;;;;;9.38;6.60;;;8.40;99.90;;;;;;4998033;28;20100;-71
2022/04/30 02:15:14;;;;;;;9.00;6.15;;;8.40;99.90;;;;;;4998357;28;20046;-71
2022/04/30 02:17:41;;;;;;;13.73;6.95;;;8.50;99.90;;;;;;4998249;28;20050;-69
2022/04/30 02:20:25;;;;;;;11.43;6.30;;;8.40;99.90;;;;;;4998466;28;20046;-69
2022/04/30 02:22:52;;;;;;;;;;;8.50;99.90;;;;;;4997133;28;20393;-71
2022/04/30 02:25:19;;;;;;;12.27;6.53;;;8.50;99.90;;;;;;4997537;28;19969;-71
2022/04/30 02:27:53;;;;;;;11.38;7.00;;;8.50;99.90;;;;;;4996392;28;20058;-68
2022/04/30 02:30:21;;;;;;;15.02;7.32;;;8.50;99.90;;;;;;4998013;28;20464;-68
2022/04/30 02:32:58;;;;;;;12.60;6.63;;;8.40;99.90;;;;;;4997934;28;20452;-72
2022/04/30 02:35:26;;;;;;;12.25;6.22;;;8.40;99.90;;;;;;4997889;28;20117;-71
2022/04/30 02:37:54;;;;;;;9.50;6.63;;;8.40;99.90;;;;;;4997696;28;20456;-69
2022/04/30 02:40:21;;;;;;;14.82;7.28;;;8.40;99.90;;;;;;4996991;28;20536;-70
2022/04/30 02:42:47;;;;;;;9.02;6.50;;;8.40;99.90;;;;;;4997791;28;20097;-69
2022/04/30 02:45:14;;;;;;;11.43;6.70;;;8.40;99.90;;;;;;4997965;28;20078;-70
2022/04/30 02:47:42;;;;;;;9.68;6.28;;;8.40;99.90;;;;;;4997969;28;20038;-69
2022/04/30 02:50:10;;;;;;;14.70;6.63;;;8.40;99.90;;;;;;4997650;28;20046;-70
2022/04/30 02:52:38;;;;;;;9.63;6.88;;;8.40;99.90;;;;;;5008873;28;20545;-69
2022/04/30 02:55:05;;;;;;;13.60;6.65;;;8.30;99.90;;;;;;5017207;28;20103;-69
2022/04/30 03:00:34;;;;;;;10.40;6.07;;;8.40;99.90;;;;;;5016947;28;20089;-72
2022/04/30 03:03:00;;;;;;;14.30;6.90;;;8.30;99.90;;;;;;5016864;28;20041;-71
2022/04/30 03:05:26;;;;;;;11.00;6.65;;;8.40;99.90;;;;;;5016948;28;20037;-73
2022/04/30 03:07:53;;;;;;;11.63;6.25;;;8.30;99.90;;;;;;5016664;28;20092;-70
2022/04/30 03:10:20;;;;;;;9.48;6.13;;;8.40;99.90;;;;;;5016808;28;20046;-71
2022/04/30 03:12:47;;;;;;;13.32;6.43;;;8.40;99.90;;;;;;5016725;28;20053;-70
2022/04/30 03:15:13;;;;;;;12.50;6.43;;;8.30;99.90;;;;;;5016493;28;20085;-71
2022/04/30 03:23:07;;;;;;;10.55;6.40;;;8.20;99.90;;;;;;5016581;28;20042;-72
2022/04/30 03:25:33;;;;;;;12.57;6.75;;;8.20;99.90;;;;;;5016167;28;20341;-70
2022/04/30 03:28:00;;;;;;;11.57;6.82;;;8.20;99.90;;;;;;5016514;28;20092;-71
2022/04/30 03:30:25;;;;;;;12.23;6.88;;;8.20;99.90;;;;;;5016508;28;20052;-70
2022/04/30 03:32:52;;;;;;;13.65;6.95;;;8.20;99.90;;;;;;5016539;28;20054;-72
2022/04/30 03:35:18;;;;;;;8.88;6.95;;;8.20;99.90;;;;;;5016710;28;20107;-71
2022/04/30 03:37:43;;;;;;;10.05;6.00;;;8.20;99.90;;;;;;5016547;28;20054;-70
2022/04/30 03:40:09;;;;;;;12.38;6.80;;;8.30;99.90;;;;;;5016269;28;20053;-70
2022/04/30 03:42:35;;;;;;;13.65;7.20;;;8.20;99.90;;;;;;5016199;28;20041;-71
2022/04/30 03:45:04;;;;;;;9.77;7.10;;;8.20;99.90;;;;;;5015865;28;20037;-71
2022/04/30 03:47:30;;;;;;;15.82;10.02;;;8.10;99.90;;;;;;5014985;28;20496;-70
2022/04/30 03:49:55;;;;;;;14.02;7.70;;;8.10;99.90;;;;;;4998898;28;20120;-71
2022/04/30 03:52:22;;;;;;;11.95;7.85;;;8.10;99.90;;;;;;5015179;28;20380;-70
2022/04/30 03:54:47;;;;;;;10.80;8.60;;;8.10;99.90;;;;;;5015802;28;20049;-73
2022/04/30 03:57:13;;;;;;;12.10;7.80;;;8.10;99.90;;;;;;5016038;28;20476;-69
2022/04/30 03:59:38;;;;;;;14.68;8.55;;;8.10;99.90;;;;;;5016130;28;20042;-68
2022/04/30 04:02:04;;;;;;;9.25;8.10;;;8.10;99.90;;;;;;4998572;28;20179;-69
2022/04/30 04:04:30;;;;;;;12.35;9.18;;;8.10;99.90;;;;;;5015876;28;20065;-69
2022/04/30 04:06:57;;;;;;;14.60;8.20;;;8.10;99.90;;;;;;4998269;28;20042;-68
2022/04/30 04:09:22;;;;;;;13.43;9.13;;;8.10;99.90;;;;;;5004290;28;20057;-70
2022/04/30 04:11:48;;;;;;;10.00;8.40;;;8.10;99.90;;;;;;4996302;28;20046;-69
2022/04/30 04:19:50;;;;;;;11.13;8.93;;;8.10;99.90;;;;;;4995868;28;20046;-69
2022/04/30 04:22:15;;;;;;;15.60;7.90;;;8.20;99.90;;;;;;4996011;28;20046;-71
2022/04/30 04:27:25;;;;;;;12.30;8.97;;;8.20;99.90;;;;;;4996113;28;20065;-69
2022/04/30 04:29:50;;;;;;;12.88;9.70;;;8.20;99.90;;;;;;4996279;28;20334;-69
2022/04/30 04:32:16;;;;;;;14.63;10.20;;;8.20;99.90;;;;;;4995595;28;20042;-70
2022/04/30 04:34:43;;;;;;;14.32;9.73;;;8.20;99.90;;;;;;4995511;28;20106;-70
2022/04/30 04:37:08;;;;;;;15.35;10.68;;;8.20;99.90;;;;;;4995802;28;20054;-71
2022/04/30 04:39:34;;;;;;;12.32;9.25;;;8.20;99.90;;;;;;4996102;28;20065;-71
2022/04/30 04:41:59;;;;;;;13.40;9.65;;;8.20;99.90;;;;;;4995777;28;20444;-70
2022/04/30 04:44:25;;;;;;;20.85;9.70;;;8.20;99.90;;;;;;4995772;28;20046;-68
2022/04/30 04:46:51;;;;;;;14.52;10.50;;;8.30;99.90;;;;;;4995551;28;20453;-71
2022/04/30 04:49:16;;;;;;;12.70;9.63;;;8.30;99.90;;;;;;4995846;28;20046;-71
2022/04/30 04:51:42;;;;;;;16.15;10.15;;;8.30;99.90;;;;;;4995122;28;20058;-71
2022/04/30 04:54:07;;;;;;;18.35;9.55;;;8.30;99.90;;;;;;4978491;28;20137;-69
2022/04/30 04:56:33;;;;;;;19.17;10.35;;;8.30;99.90;;;;;;4996083;28;20046;-70
2022/04/30 04:58:59;;;;;;;15.70;10.23;;;8.40;99.90;;;;;;4995585;28;20046;-69
2022/04/30 05:01:25;;;;;;;18.60;10.30;;;8.40;99.90;;;;;;4995492;28;20061;-69
2022/04/30 05:03:50;;;;;;;14.75;10.25;;;8.40;99.90;;;;;;4994942;28;20042;-73
2022/04/30 05:06:16;;;;;;;16.27;10.35;;;8.40;99.90;;;;;;4995369;28;20124;-70
2022/04/30 05:08:42;;;;;;;13.50;9.13;;;8.40;99.90;;;;;;5001301;28;20471;-70
2022/04/30 05:11:08;;;;;;;17.77;9.52;;;8.40;99.90;;;;;;5015140;28;20084;-69
2022/04/30 05:13:34;;;;;;;16.40;10.93;;;8.40;99.90;;;;;;5014842;28;20041;-70
2022/04/30 05:15:59;;;;;;;12.45;9.35;;;8.40;99.90;;;;;;5014674;28;20046;-72
2022/04/30 05:18:25;;;;;;;12.02;8.88;;;8.30;99.90;;;;;;5014714;28;20472;-69
2022/04/30 05:20:50;;;;;;;11.85;9.55;;;8.30;99.90;;;;;;5011616;28;20064;-70
2022/04/30 05:23:16;;;;;;;11.38;10.18;;;8.20;99.90;;;;;;5014817;28;20443;-69
2022/04/30 05:25:41;;;;;;;19.58;11.18;;;8.20;99.90;;;;;;5014782;28;20440;-72
2022/04/30 05:28:08;;;;;;;18.88;11.13;;;8.20;99.90;;;;;;4997415;28;20111;-70
2022/04/30 05:30:33;;;;;;;21.48;11.98;;;8.20;99.90;;;;;;5012098;28;20057;-69
2022/04/30 05:32:59;;;;;;;13.18;10.45;;;8.20;99.90;;;;;;5014569;28;20053;-71
2022/04/30 05:35:25;;;;;;;17.80;11.63;;;8.20;99.90;;;;;;5014374;28;20133;-70
2022/04/30 05:37:51;;;;;;;15.40;10.50;;;8.20;99.90;;;;;;5014888;28;20042;-69
2022/04/30 05:40:18;;;;;;;15.30;10.73;;;8.20;99.90;;;;;;5014762;28;20045;-70
2022/04/30 05:42:43;;;;;;;17.13;11.00;;;8.30;99.90;;;;;;5014868;28;20365;-70
2022/04/30 05:45:09;;;;;;;18.45;10.57;;;8.30;99.90;;;;;;5014374;28;20065;-70
2022/04/30 05:47:35;;;;;;;12.02;10.32;;;8.30;99.90;;;;;;5014671;28;20045;-69
2022/04/30 05:50:00;;;;;;;17.25;11.30;;;8.40;99.90;;;;;;5014631;28;20050;-68
2022/04/30 05:52:26;;;;;;;15.80;11.07;;;8.40;99.90;;;;;;5014562;28;20061;-71
2022/04/30 05:54:52;;;;;;;16.88;10.90;;;8.50;99.90;;;;;;5014710;28;20072;-71
2022/04/30 05:57:18;;;;;;;14.90;10.20;;;8.60;99.90;;;;;;5014578;28;20460;-69
2022/04/30 05:59:43;;;;;;;15.63;11.02;;;8.60;99.90;;;;;;5014646;28;20515;-70
2022/04/30 06:02:09;;;;;;;14.88;11.15;;;8.70;99.90;;;;;;5014457;28;20464;-68
2022/04/30 06:04:34;;;;;;;16.83;12.25;;;8.70;99.90;;;;;;5014411;28;20061;-70
2022/04/30 06:07:00;;;;;;;16.85;12.05;;;8.70;99.90;;;;;;5014548;28;20096;-71
2022/04/30 06:09:25;;;;;;;20.77;11.93;;;8.70;99.90;;;;;;5014348;28;20077;-70
2022/04/30 06:11:51;;;;;;;14.43;11.52;;;8.70;99.90;;;;;;5014341;28;20042;-70
2022/04/30 06:14:17;;;;;;;17.10;12.38;;;8.70;99.90;;;;;;5014290;28;20479;-71
2022/04/30 06:16:42;;;;;;;15.93;11.98;;;8.70;99.90;;;;;;5016355;28;20451;-70
2022/04/30 06:19:08;;;;;;;17.50;12.15;;;8.70;99.90;;;;;;5017885;28;20124;-70
2022/04/30 06:21:34;;;;;;;17.52;12.02;;;8.80;99.90;;;;;;5017764;28;20517;-72
2022/04/30 06:23:59;;;;;;;15.10;11.20;;;8.70;99.90;;;;;;5018129;28;20046;-70
2022/04/30 06:26:25;;;;;;;17.13;11.15;;;8.80;99.90;;;;;;5017701;28;20046;-70
2022/04/30 06:28:50;;;;;;;20.65;11.80;;;8.80;99.90;;;;;;5017672;28;20046;-71
2022/04/30 06:31:16;;;;;;;15.35;11.27;;;8.80;99.90;;;;;;5008870;28;20042;-69
2022/04/30 06:33:41;;;;;;;15.70;11.10;;;8.80;99.90;;;;;;4998102;28;20081;-70
2022/04/30 06:36:07;;;;;;;17.55;12.05;;;8.90;99.90;;;;;;4981073;28;20061;-71
2022/04/30 06:38:33;;;;;;;19.20;11.90;;;8.90;99.90;;;;;;5000460;28;20051;-73
2022/04/30 06:40:59;;;;;;;16.63;11.40;;;9.00;99.90;;;;;;4998026;28;20364;-70
2022/04/30 06:43:25;;;;;;;16.17;10.55;;;8.90;99.90;;;;;;4997770;28;20050;-71
2022/04/30 06:45:51;;;;;;;15.88;10.93;;;9.00;99.90;;;;;;5015748;28;20084;-68
2022/04/30 06:48:17;;;;;;;13.85;10.38;;;9.00;99.90;;;;;;5015111;28;20052;-67
2022/04/30 06:50:44;;;;;;;14.38;9.55;;;9.00;99.90;;;;;;5007525;28;20050;-67
2022/04/30 06:58:56;;;;;;;12.75;8.85;;;9.10;99.90;;;;;;4956821;29;20219;-68
2022/04/30 07:01:40;;;;;;;15.43;9.73;;;9.10;99.90;;;;;;5005239;28;20140;-67
2022/04/30 07:04:07;;;;;;;16.17;10.07;;;9.10;99.90;;;;;;5016353;28;20053;-66
2022/04/30 07:06:33;;;;;;;13.70;9.45;;;9.10;99.90;;;;;;5017245;28;20077;-67
2022/04/30 07:09:00;;;;;;;12.27;9.43;;;9.10;99.90;;;;;;5008755;28;20038;-69
2022/04/30 07:11:26;;;;;;;16.77;10.07;;;9.10;99.90;;;;;;4997272;28;20046;-67
2022/04/30 07:13:52;;;;;;;12.35;9.45;;;9.20;99.90;;;;;;4997237;28;20049;-67
2022/04/30 07:16:17;;;;;;;14.82;9.93;;;9.20;99.90;;;;;;4997021;28;20113;-67
2022/04/30 07:18:43;;;;;;;13.20;9.75;;;9.30;99.90;;;;;;4997399;28;20034;-66
2022/04/30 07:21:08;;;;;;;15.32;10.02;;;9.30;99.90;;;;;;4998034;28;20050;-67
2022/04/30 07:23:34;;;;;;;12.35;9.18;;;9.40;99.90;;;;;;4997508;28;20409;-66
2022/04/30 07:26:00;;;;;;;16.30;9.75;;;9.40;99.90;;;;;;5016836;28;20464;-68
2022/04/30 07:28:26;;;;;;;15.07;10.75;;;9.50;99.90;;;;;;5016409;28;20048;-69
2022/04/30 07:30:52;;;;;;;15.68;9.75;;;9.50;99.90;;;;;;5016492;28;20046;-68
2022/04/30 07:33:18;;;;;;;14.60;10.35;;;9.50;99.90;;;;;;5016377;28;20096;-67
2022/04/30 07:35:43;;;;;;;14.70;9.23;;;9.60;99.90;;;;;;5016388;28;20103;-68
2022/04/30 07:38:09;;;;;;;13.57;8.98;;;9.60;99.90;;;;;;4998455;28;20049;-69
2022/04/30 07:40:35;;;;;;;16.08;9.40;;;9.60;99.90;;;;;;5011054;28;20046;-68
2022/04/30 07:43:02;;;;;;;10.82;8.90;;;9.70;99.90;;;;;;4991573;28;20053;-68
2022/04/30 07:45:28;;;;;;;12.25;8.52;;;9.70;99.90;;;;;;4996420;28;20043;-68
2022/04/30 07:47:54;;;;;;;14.82;8.88;;;9.70;99.90;;;;;;4996630;28;20189;-71
2022/04/30 07:50:21;;;;;;;11.07;7.97;;;9.70;99.90;;;;;;4980479;28;20046;-68
2022/04/30 07:52:48;;;;;;;14.05;9.20;;;9.70;99.90;;;;;;5015735;28;20061;-71
2022/04/30 07:55:14;;;;;;;14.30;8.55;;;9.80;99.90;;;;;;5003013;28;20050;-68
2022/04/30 07:57:39;;;;;;;11.05;7.57;;;9.80;99.90;;;;;;4979399;28;20121;-66
2022/04/30 08:00:06;;;;;;;11.57;8.13;;;9.80;99.90;;;;;;4996456;28;20066;-71
2022/04/30 08:02:32;;;;;;;13.10;7.85;;;9.80;99.90;;;;;;4996180;28;20105;-68
2022/04/30 08:04:58;;;;;;;11.15;7.85;;;9.80;99.90;;;;;;4996346;28;20046;-66
2022/04/30 08:07:23;;;;;;;10.82;7.93;;;9.90;99.90;;;;;;4978881;28;20046;-69
2022/04/30 08:09:49;;;;;;;11.00;7.78;;;10.00;99.90;;;;;;5011188;28;20046;-69
2022/04/30 08:12:17;;;;;;;11.98;7.70;;;10.00;99.90;;;;;;5014916;28;20053;-68
2022/04/30 08:14:44;;;;;;;13.43;8.10;;;10.20;99.90;;;;;;4998416;28;20065;-65
2022/04/30 08:17:10;;;;;;;11.95;8.02;;;10.20;99.90;;;;;;5015261;28;20037;-67
2022/04/30 08:19:35;;;;;;;12.68;7.95;;;10.40;99.90;;;;;;5015621;28;20475;-65
2022/04/30 08:22:01;;;;;;;14.40;8.50;;;10.40;99.90;;;;;;4998352;28;20049;-66
2022/04/30 08:24:26;;;;;;;14.25;8.32;;;10.40;99.90;;;;;;5015789;28;20139;-66
2022/04/30 08:26:52;;;;;;;13.10;8.40;;;10.40;99.90;;;;;;5015587;28;20046;-69
2022/04/30 08:29:17;;;;;;;17.65;10.27;;;10.30;99.90;;;;;;5014553;28;20156;-68
2022/04/30 08:31:43;;;;;;;10.88;8.85;;;10.30;99.90;;;;;;5014928;28;20124;-67
2022/04/30 08:34:08;;;;;;;14.13;8.93;;;10.40;99.90;;;;;;4998603;28;20058;-65
2022/04/30 08:36:34;;;;;;;11.77;8.27;;;10.40;99.90;;;;;;4997866;28;20286;-66
2022/04/30 08:38:59;;;;;;;11.55;8.25;;;10.30;99.90;;;;;;5014757;28;20046;-68
2022/04/30 08:41:25;;;;;;;11.50;7.68;;;10.30;99.90;;;;;;5014932;28;20057;-67
2022/04/30 08:43:50;;;;;;;11.55;8.65;;;10.30;99.90;;;;;;5015183;28;20125;-74
2022/04/30 08:46:20;;;;;;;11.68;8.45;;;10.40;99.90;;;;;;5001893;28;20077;-68
2022/04/30 08:48:46;;;;;;;13.30;9.10;;;10.50;99.90;;;;;;4978553;28;20064;-70
2022/04/30 08:51:12;;;;;;;15.20;9.43;;;10.50;99.90;;;;;;4978498;28;20351;-69
2022/04/30 08:53:37;;;;;;;13.27;9.82;;;10.60;99.90;;;;;;4995446;28;20141;-71
2022/04/30 09:03:25;;;;;;;14.93;10.13;;;10.50;99.90;;;;;;4995576;28;20045;-72
2022/04/30 09:05:50;;;;;;;14.07;9.98;;;10.50;99.90;;;;;;4995300;28;20046;-71
2022/04/30 09:08:16;;;;;;;12.55;9.02;;;10.40;99.90;;;;;;4997755;28;20050;-70
2022/04/30 09:10:42;;;;;;;12.23;9.15;;;10.40;99.90;;;;;;5014980;28;20045;-72
2022/04/30 09:13:15;;;;;;;13.80;9.43;;;10.40;99.90;;;;;;5014887;28;20416;-73
2022/04/30 09:15:44;;;;;;;16.55;10.32;;;10.30;99.90;;;;;;5015269;28;20065;-72
2022/04/30 09:18:11;;;;;;;12.55;9.65;;;10.30;99.90;;;;;;5014268;28;20049;-68
2022/04/30 09:20:48;;;;;;;16.60;10.50;;;10.30;99.90;;;;;;5005095;28;20057;-69
2022/04/30 09:23:29;;;;;;;20.40;11.30;;;10.30;99.90;;;;;;4995580;28;20369;-68
2022/04/30 09:25:57;;;;;;;14.52;10.32;;;10.30;99.90;;;;;;5013309;28;20534;-70
2022/04/30 09:28:30;;;;;;;14.52;10.07;;;10.30;99.90;;;;;;5014691;28;20041;-68
2022/04/30 09:31:14;;;;;;;15.25;9.98;;;10.30;99.90;;;;;;5014374;28;20046;-70
2022/04/30 09:37:40;;;;;;;15.48;10.32;;;10.20;99.90;;;;;;5013475;28;20061;-67
2022/04/30 09:37:52;;;;;;;17.08;11.38;;;10.20;99.90;;;;;;5011559;28;20042;-68
2022/04/30 09:39:43;;;;;;;16.48;10.95;;;10.20;99.90;;;;;;4993444;28;20112;-71
2022/04/30 09:42:09;;;;;;;14.27;11.38;;;10.20;99.90;;;;;;5010572;28;20050;-67
2022/04/30 09:44:37;;;;;;;17.50;11.15;;;10.20;99.90;;;;;;5010887;28;20145;-70
2022/04/30 09:47:06;;;;;;;15.93;12.40;;;10.10;99.90;;;;;;5011284;28;20042;-69
2022/04/30 09:55:06;;;;;;;15.57;11.60;;;10.20;99.90;;;;;;5014823;28;20054;-68
2022/04/30 09:57:35;;;;;;;14.30;10.93;;;10.30;99.90;;;;;;5015006;28;20045;-68
2022/04/30 10:00:01;;;;;;;12.77;11.32;;;10.30;99.90;;;;;;5014987;28;20050;-68
2022/04/30 10:02:30;;;;;;;15.63;11.55;;;10.50;99.90;;;;;;5014890;28;20133;-68
2022/04/30 10:04:57;;;;;;;16.10;12.32;;;10.50;99.90;;;;;;5017872;28;20056;-68
2022/04/30 10:07:25;;;;;;;17.58;12.50;;;10.60;99.90;;;;;;5017397;28;20042;-66
2022/04/30 10:10:12;;;;;;;19.05;13.38;;;10.70;99.90;;;;;;4997094;28;20523;-69
2022/04/30 10:12:46;;;;;;;14.68;12.05;;;10.80;99.90;;;;;;5013766;28;20042;-65
2022/04/30 10:15:23;;;;;;;14.30;11.75;;;10.90;99.90;;;;;;5014509;28;20387;-70
2022/04/30 10:17:57;;;;;;;13.25;10.45;;;10.90;99.90;;;;;;5013686;28;21906;-67
2022/04/30 10:20:34;;;;;;;13.52;11.25;;;11.00;99.90;;;;;;5014669;28;20060;-66
2022/04/30 10:23:01;;;;;;;16.58;12.32;;;11.10;99.90;;;;;;5014364;28;20100;-69
2022/04/30 10:25:48;;;;;;;14.00;10.15;;;11.20;99.90;;;;;;5014556;28;20042;-69
2022/04/30 10:28:21;;;;;;;11.68;9.55;;;11.40;99.90;;;;;;5013921;28;20112;-67
2022/04/30 10:31:04;;;;;;;11.60;9.25;;;11.50;99.90;;;;;;5013665;28;20061;-68
2022/04/30 10:33:31;;;;;;;12.48;9.05;;;11.60;99.90;;;;;;4996196;28;20065;-68
2022/04/30 10:36:11;;;;;;;10.32;7.70;;;11.60;99.90;;;;;;5014199;28;20042;-67
2022/04/30 10:38:37;;;;;;;8.75;7.10;;;11.70;99.90;;;;;;5013728;28;20041;-68
2022/04/30 10:41:05;;;;;;;10.57;7.53;;;11.60;99.90;;;;;;5014349;28;20030;-68
2022/04/30 10:43:42;;;;;;;12.73;8.35;;;11.60;99.90;;;;;;5014245;28;20050;-68
2022/04/30 10:46:18;;;;;;;10.57;7.57;;;11.50;99.90;;;;;;5013725;28;20539;-67
2022/04/30 10:48:43;;;;;;;11.55;8.32;;;11.50;99.90;;;;;;5013758;28;20038;-68
2022/04/30 10:51:12;;;;;;;9.85;8.13;;;11.60;99.90;;;;;;5013070;28;20103;-68
2022/04/30 10:53:46;;;;;;;10.52;8.20;;;11.70;99.90;;;;;;5013827;28;20364;-68
2022/04/30 10:56:13;;;;;;;10.48;8.02;;;11.70;99.90;;;;;;5013343;28;20081;-69
2022/04/30 10:58:39;;;;;;;15.05;7.97;;;11.70;99.90;;;;;;5014017;28;20120;-69
2022/04/30 11:01:19;;;;;;;10.43;7.85;;;11.80;99.90;;;;;;5013127;28;20057;-69
2022/04/30 11:03:50;;;;;;;9.63;7.93;;;11.90;99.90;;;;;;5013143;28;20111;-68
2022/04/30 11:06:20;;;;;;;9.15;7.10;;;11.80;99.90;;;;;;5013617;28;20064;-68
2022/04/30 11:09:00;;;;;;;9.52;7.20;;;11.90;99.90;;;;;;5012645;28;20041;-70
2022/04/30 11:11:27;;;;;;;9.07;6.40;;;11.70;99.90;;;;;;5013047;28;20403;-71
2022/04/30 11:14:06;;;;;;;12.00;7.00;;;11.70;99.90;;;;;;5013218;28;20369;-68
2022/04/30 11:16:37;;;;;;;11.65;6.85;;;11.60;99.90;;;;;;5012980;28;20046;-67
2022/04/30 11:19:10;;;;;;;12.15;7.75;;;11.60;99.90;;;;;;5016057;28;20534;-67
2022/04/30 11:21:37;;;;;;;8.30;6.63;;;11.50;99.90;;;;;;5016390;28;20053;-64
2022/04/30 11:24:06;;;;;;;8.80;7.90;;;11.40;99.90;;;;;;5016417;28;20052;-67
2022/04/30 11:26:43;;;;;;;8.70;7.60;;;11.30;99.90;;;;;;5016297;28;20048;-67
2022/04/30 11:29:13;;;;;;;11.77;9.27;;;11.20;99.90;;;;;;5016294;28;20095;-66
2022/04/30 11:31:41;;;;;;;9.32;7.65;;;11.00;99.90;;;;;;5016490;28;20054;-66
2022/04/30 11:34:13;;;;;;;12.82;8.45;;;10.90;99.90;;;;;;5016413;28;20387;-66
2022/04/30 11:36:44;;;;;;;12.32;7.97;;;10.80;99.90;;;;;;4998897;28;20042;-65
2022/04/30 11:39:10;;;;;;;12.32;8.68;;;10.80;99.90;;;;;;5013237;28;20046;-67
2022/04/30 11:41:48;;;;;;;12.75;9.45;;;10.70;99.90;;;;;;5012221;28;20037;-66
2022/04/30 11:46:58;;;;;;;13.50;9.55;;;10.70;99.90;;;;;;5117513;22;20093;-67
2022/04/30 11:49:26;;;;;;;14.02;9.68;;;10.60;99.90;;;;;;5060978;28;20366;-70
2022/04/30 11:51:55;;;;;;;16.92;9.82;;;10.70;99.90;;;;;;5044563;28;20045;-68
2022/04/30 11:54:22;;;;;;;13.45;10.02;;;10.60;99.90;;;;;;5062100;28;20045;-70
2022/04/30 11:56:49;;;;;;;10.60;9.45;;;10.60;99.90;;;;;;5044507;28;20438;-69
2022/04/30 11:59:15;;;;;;;14.23;9.98;;;10.60;99.90;;;;;;5044936;28;20049;-69
2022/04/30 12:01:44;;;;;;;11.65;10.32;;;10.70;99.90;;;;;;5061228;28;20041;-72
2022/04/30 12:04:14;;;;;;;18.40;10.68;;;10.70;99.90;;;;;;5062200;28;20032;-68
2022/04/30 12:06:43;;;;;;;13.30;9.95;;;10.70;99.90;;;;;;5042346;28;20045;-66
2022/04/30 12:09:21;;;;;;;15.00;10.80;;;10.80;99.90;;;;;;5049694;28;20393;-68
2022/04/30 12:11:50;;;;;;;14.18;9.77;;;10.90;99.90;;;;;;5032711;28;20040;-70
2022/04/30 12:14:16;;;;;;;13.50;10.27;;;10.90;99.90;;;;;;5048801;28;20057;-67
2022/04/30 12:16:43;;;;;;;12.63;9.25;;;11.00;99.90;;;;;;5052133;28;20489;-67
2022/04/30 12:25:06;;;;;;;12.65;9.38;;;11.30;99.90;;;;;;5040131;28;20056;-71
2022/04/30 12:27:32;;;;;;;15.93;9.90;;;11.40;99.90;;;;;;5054143;28;20099;-66
2022/04/30 12:30:24;;;;;;;10.48;8.60;;;11.50;99.90;;;;;;5055138;28;20048;-71
2022/04/30 12:32:55;;;;;;;13.57;9.68;;;11.70;99.90;;;;;;5052495;28;20475;-69
2022/04/30 12:35:30;;;;;;;12.60;8.75;;;11.90;99.90;;;;;;5054561;28;20072;-67
2022/04/30 12:38:06;;;;;;;13.13;9.48;;;12.10;99.90;;;;;;5051773;28;20186;-69
2022/04/30 12:40:37;;;;;;;10.98;9.52;;;12.30;99.90;;;;;;5042999;28;20040;-70
2022/04/30 12:43:03;;;;;;;12.45;9.77;;;12.50;99.90;;;;;;5054361;28;20478;-68
2022/04/30 12:45:31;;;;;;;14.25;8.95;;;12.70;99.90;;;;;;5054586;28;20057;-68
2022/04/30 12:47:57;;;;;;;13.25;9.35;;;12.90;99.90;;;;;;5054373;28;20045;-69
2022/04/30 12:50:23;;;;;;;12.52;9.13;;;13.10;99.90;;;;;;5054916;28;20073;-70
2022/04/30 12:52:49;;;;;;;13.48;9.00;;;13.20;99.90;;;;;;5054906;28;20063;-68
2022/04/30 12:55:18;;;;;;;12.30;9.15;;;13.30;99.90;;;;;;5054870;28;20146;-67
2022/04/30 12:57:44;;;;;;;13.00;9.00;;;13.10;99.90;;;;;;5038046;28;20375;-71
2022/04/30 13:00:11;;;;;;;9.35;8.18;;;12.80;99.90;;;;;;5033279;28;20045;-69
2022/04/30 13:02:39;;;;;;;13.65;8.27;;;12.50;99.90;;;;;;5053604;28;20386;-68
2022/04/30 13:05:07;;;;;;;10.75;8.18;;;12.40;99.90;;;;;;5054715;28;20134;-68
2022/04/30 13:07:33;;;;;;;11.38;8.18;;;12.40;99.90;;;;;;5054526;28;20049;-68
2022/04/30 13:15:28;;;;;;;7.38;6.50;;;11.80;99.90;;;;;;5054465;28;20080;-69
2022/04/30 13:17:55;;;;;;;9.10;6.82;;;11.80;99.90;;;;;;5054030;28;20095;-68
2022/04/30 13:20:22;;;;;;;11.63;7.60;;;11.80;99.90;;;;;;5054436;28;20064;-68
2022/04/30 13:22:51;;;;;;;9.15;7.00;;;11.80;99.90;;;;;;5037006;28;20076;-69
2022/04/30 13:25:17;;;;;;;10.00;7.00;;;11.80;99.90;;;;;;5056544;28;20052;-68
2022/04/30 13:27:42;;;;;;;7.30;5.75;;;11.80;99.90;;;;;;5055200;28;20060;-69
2022/04/30 13:30:09;;;;;;;7.80;5.95;;;11.90;99.90;;;;;;5058472;28;20124;-69
2022/04/30 13:32:34;;;;;;;7.70;6.20;;;12.00;99.90;;;;;;5058472;28;20048;-69
2022/04/30 13:35:00;;;;;;;10.52;7.90;;;11.90;99.90;;;;;;5057821;28;20045;-69
2022/04/30 13:37:26;;;;;;;8.95;6.38;;;12.00;99.90;;;;;;5058437;28;20455;-69
2022/04/30 13:39:51;;;;;;;8.75;6.65;;;12.00;99.90;;;;;;5041325;28;20049;-69